sensor_id;sensor_type;location;lat;lon;timestamp;P1;durP1;ratioP1;P2;durP2;ratioP2
26319;SDS011;14024;52.226;5.200;2022-07-29T00:01:23;4.43;;;2.30;;
26319;SDS011;14024;52.226;5.200;2022-07-29T00:03:49;14.68;;;3.17;;
26319;SDS011;14024;52.226;5.200;2022-07-29T00:06:15;3.08;;;2.17;;
26319;SDS011;14024;52.226;5.200;2022-07-29T00:08:41;8.15;;;2.20;;
26319;SDS011;14024;52.226;5.200;2022-07-29T00:11:07;4.50;;;1.83;;
26319;SDS011;14024;52.226;5.200;2022-07-29T00:13:33;5.57;;;2.78;;
26319;SDS011;14024;52.226;5.200;2022-07-29T00:15:59;3.75;;;1.80;;
26319;SDS011;14024;52.226;5.200;2022-07-29T00:18:25;4.22;;;2.22;;
26319;SDS011;14024;52.226;5.200;2022-07-29T00:20:51;7.75;;;2.42;;
26319;SDS011;14024;52.226;5.200;2022-07-29T00:23:17;2.80;;;2.05;;
26319;SDS011;14024;52.226;5.200;2022-07-29T00:25:43;3.58;;;2.13;;
26319;SDS011;14024;52.226;5.200;2022-07-29T00:28:09;6.93;;;2.10;;
26319;SDS011;14024;52.226;5.200;2022-07-29T00:30:35;3.63;;;2.15;;
26319;SDS011;14024;52.226;5.200;2022-07-29T00:33:01;3.88;;;2.33;;
26319;SDS011;14024;52.226;5.200;2022-07-29T00:35:27;5.03;;;2.20;;
26319;SDS011;14024;52.226;5.200;2022-07-29T00:38:08;4.70;;;2.22;;
26319;SDS011;14024;52.226;5.200;2022-07-29T00:40:34;5.18;;;2.13;;
26319;SDS011;14024;52.226;5.200;2022-07-29T00:43:00;3.92;;;2.00;;
26319;SDS011;14024;52.226;5.200;2022-07-29T00:45:27;4.32;;;2.40;;
26319;SDS011;14024;52.226;5.200;2022-07-29T00:47:53;7.32;;;2.00;;
26319;SDS011;14024;52.226;5.200;2022-07-29T00:50:19;6.82;;;2.38;;
26319;SDS011;14024;52.226;5.200;2022-07-29T00:52:45;5.25;;;2.15;;
26319;SDS011;14024;52.226;5.200;2022-07-29T00:55:12;6.45;;;2.42;;
26319;SDS011;14024;52.226;5.200;2022-07-29T00:57:38;4.13;;;1.80;;
26319;SDS011;14024;52.226;5.200;2022-07-29T01:00:06;4.55;;;1.85;;
26319;SDS011;14024;52.226;5.200;2022-07-29T01:02:32;9.98;;;2.10;;
26319;SDS011;14024;52.226;5.200;2022-07-29T01:04:58;6.28;;;2.22;;
26319;SDS011;14024;52.226;5.200;2022-07-29T01:07:25;8.10;;;2.78;;
26319;SDS011;14024;52.226;5.200;2022-07-29T01:09:51;4.95;;;2.08;;
26319;SDS011;14024;52.226;5.200;2022-07-29T01:12:21;5.35;;;2.40;;
26319;SDS011;14024;52.226;5.200;2022-07-29T01:14:47;4.13;;;2.13;;
26319;SDS011;14024;52.226;5.200;2022-07-29T01:17:18;8.30;;;1.85;;
26319;SDS011;14024;52.226;5.200;2022-07-29T01:19:52;4.87;;;2.33;;
26319;SDS011;14024;52.226;5.200;2022-07-29T01:27:23;4.28;;;2.30;;
26319;SDS011;14024;52.226;5.200;2022-07-29T01:29:54;5.28;;;2.20;;
26319;SDS011;14024;52.226;5.200;2022-07-29T01:32:22;6.00;;;2.47;;
26319;SDS011;14024;52.226;5.200;2022-07-29T01:34:50;4.43;;;1.90;;
26319;SDS011;14024;52.226;5.200;2022-07-29T01:37:18;3.00;;;2.00;;
26319;SDS011;14024;52.226;5.200;2022-07-29T01:39:45;4.35;;;2.28;;
26319;SDS011;14024;52.226;5.200;2022-07-29T01:47:25;4.78;;;2.25;;
26319;SDS011;14024;52.226;5.200;2022-07-29T01:49:53;4.88;;;2.30;;
26319;SDS011;14024;52.226;5.200;2022-07-29T01:52:26;4.20;;;2.30;;
26319;SDS011;14024;52.226;5.200;2022-07-29T01:54:55;2.90;;;2.23;;
26319;SDS011;14024;52.226;5.200;2022-07-29T01:57:25;4.93;;;2.97;;
26319;SDS011;14024;52.226;5.200;2022-07-29T01:59:52;3.72;;;2.67;;
26319;SDS011;14024;52.226;5.200;2022-07-29T02:02:18;6.38;;;2.90;;
26319;SDS011;14024;52.226;5.200;2022-07-29T02:04:45;3.35;;;2.40;;
26319;SDS011;14024;52.226;5.200;2022-07-29T02:07:17;3.63;;;2.38;;
26319;SDS011;14024;52.226;5.200;2022-07-29T02:09:43;5.47;;;2.50;;
26319;SDS011;14024;52.226;5.200;2022-07-29T02:12:10;5.05;;;2.80;;
26319;SDS011;14024;52.226;5.200;2022-07-29T02:14:39;5.22;;;2.63;;
26319;SDS011;14024;52.226;5.200;2022-07-29T02:17:06;5.90;;;3.05;;
26319;SDS011;14024;52.226;5.200;2022-07-29T02:19:32;6.00;;;2.83;;
26319;SDS011;14024;52.226;5.200;2022-07-29T02:22:00;6.35;;;2.90;;
26319;SDS011;14024;52.226;5.200;2022-07-29T02:24:27;5.63;;;2.92;;
26319;SDS011;14024;52.226;5.200;2022-07-29T02:26:55;6.43;;;3.10;;
26319;SDS011;14024;52.226;5.200;2022-07-29T02:29:22;5.68;;;2.85;;
26319;SDS011;14024;52.226;5.200;2022-07-29T02:31:49;5.13;;;2.70;;
26319;SDS011;14024;52.226;5.200;2022-07-29T02:34:18;8.07;;;2.58;;
26319;SDS011;14024;52.226;5.200;2022-07-29T02:36:45;7.95;;;3.38;;
26319;SDS011;14024;52.226;5.200;2022-07-29T02:39:12;5.32;;;3.00;;
26319;SDS011;14024;52.226;5.200;2022-07-29T02:41:48;6.93;;;2.78;;
26319;SDS011;14024;52.226;5.200;2022-07-29T02:44:16;8.77;;;2.80;;
26319;SDS011;14024;52.226;5.200;2022-07-29T02:46:45;6.30;;;2.90;;
26319;SDS011;14024;52.226;5.200;2022-07-29T02:49:16;4.15;;;2.90;;
26319;SDS011;14024;52.226;5.200;2022-07-29T02:51:53;6.85;;;3.13;;
26319;SDS011;14024;52.226;5.200;2022-07-29T02:54:24;4.68;;;2.80;;
26319;SDS011;14024;52.226;5.200;2022-07-29T02:56:52;6.45;;;2.85;;
26319;SDS011;14024;52.226;5.200;2022-07-29T02:59:22;5.68;;;2.70;;
26319;SDS011;14024;52.226;5.200;2022-07-29T03:01:49;9.68;;;3.38;;
26319;SDS011;14024;52.226;5.200;2022-07-29T03:04:15;6.30;;;3.10;;
26319;SDS011;14024;52.226;5.200;2022-07-29T03:06:43;6.43;;;2.83;;
26319;SDS011;14024;52.226;5.200;2022-07-29T03:09:10;4.65;;;2.75;;
26319;SDS011;14024;52.226;5.200;2022-07-29T03:11:36;10.65;;;2.97;;
26319;SDS011;14024;52.226;5.200;2022-07-29T03:14:02;5.60;;;2.72;;
26319;SDS011;14024;52.226;5.200;2022-07-29T03:16:28;5.07;;;2.70;;
26319;SDS011;14024;52.226;5.200;2022-07-29T03:18:55;6.50;;;2.85;;
26319;SDS011;14024;52.226;5.200;2022-07-29T03:21:21;5.75;;;2.60;;
26319;SDS011;14024;52.226;5.200;2022-07-29T03:23:47;5.38;;;2.67;;
26319;SDS011;14024;52.226;5.200;2022-07-29T03:26:13;6.03;;;2.58;;
26319;SDS011;14024;52.226;5.200;2022-07-29T03:28:39;5.38;;;2.70;;
26319;SDS011;14024;52.226;5.200;2022-07-29T03:31:05;3.88;;;2.63;;
26319;SDS011;14024;52.226;5.200;2022-07-29T03:33:31;6.93;;;2.67;;
26319;SDS011;14024;52.226;5.200;2022-07-29T03:35:57;7.45;;;2.80;;
26319;SDS011;14024;52.226;5.200;2022-07-29T03:38:23;4.18;;;2.63;;
26319;SDS011;14024;52.226;5.200;2022-07-29T03:40:54;10.70;;;3.08;;
26319;SDS011;14024;52.226;5.200;2022-07-29T03:43:21;4.03;;;2.55;;
26319;SDS011;14024;52.226;5.200;2022-07-29T03:45:49;3.40;;;2.55;;
26319;SDS011;14024;52.226;5.200;2022-07-29T03:48:16;4.53;;;2.50;;
26319;SDS011;14024;52.226;5.200;2022-07-29T03:50:43;4.68;;;2.80;;
26319;SDS011;14024;52.226;5.200;2022-07-29T03:53:09;6.65;;;2.80;;
26319;SDS011;14024;52.226;5.200;2022-07-29T03:55:37;7.50;;;2.95;;
26319;SDS011;14024;52.226;5.200;2022-07-29T03:58:05;4.95;;;2.63;;
26319;SDS011;14024;52.226;5.200;2022-07-29T04:00:33;7.40;;;2.72;;
26319;SDS011;14024;52.226;5.200;2022-07-29T04:02:59;10.43;;;3.00;;
26319;SDS011;14024;52.226;5.200;2022-07-29T04:05:25;6.32;;;3.03;;
26319;SDS011;14024;52.226;5.200;2022-07-29T04:07:51;7.35;;;2.80;;
26319;SDS011;14024;52.226;5.200;2022-07-29T04:10:17;4.22;;;3.00;;
26319;SDS011;14024;52.226;5.200;2022-07-29T04:12:48;6.20;;;3.78;;
26319;SDS011;14024;52.226;5.200;2022-07-29T04:15:14;5.90;;;2.72;;
26319;SDS011;14024;52.226;5.200;2022-07-29T04:17:40;5.80;;;2.65;;
26319;SDS011;14024;52.226;5.200;2022-07-29T04:20:06;5.05;;;3.03;;
26319;SDS011;14024;52.226;5.200;2022-07-29T04:22:33;9.40;;;2.75;;
26319;SDS011;14024;52.226;5.200;2022-07-29T04:24:59;8.20;;;3.00;;
26319;SDS011;14024;52.226;5.200;2022-07-29T04:27:25;8.05;;;2.92;;
26319;SDS011;14024;52.226;5.200;2022-07-29T04:29:51;4.50;;;3.22;;
26319;SDS011;14024;52.226;5.200;2022-07-29T04:32:17;5.95;;;2.97;;
26319;SDS011;14024;52.226;5.200;2022-07-29T04:34:43;4.28;;;2.90;;
26319;SDS011;14024;52.226;5.200;2022-07-29T04:37:11;6.30;;;2.75;;
26319;SDS011;14024;52.226;5.200;2022-07-29T04:39:37;10.93;;;3.40;;
26319;SDS011;14024;52.226;5.200;2022-07-29T04:42:03;4.32;;;2.95;;
26319;SDS011;14024;52.226;5.200;2022-07-29T04:44:29;5.50;;;2.88;;
26319;SDS011;14024;52.226;5.200;2022-07-29T04:46:56;4.22;;;2.97;;
26319;SDS011;14024;52.226;5.200;2022-07-29T04:49:22;5.80;;;3.17;;
26319;SDS011;14024;52.226;5.200;2022-07-29T04:51:48;7.60;;;3.03;;
26319;SDS011;14024;52.226;5.200;2022-07-29T04:54:14;7.38;;;2.80;;
26319;SDS011;14024;52.226;5.200;2022-07-29T04:56:40;7.97;;;2.90;;
26319;SDS011;14024;52.226;5.200;2022-07-29T04:59:06;4.93;;;2.85;;
26319;SDS011;14024;52.226;5.200;2022-07-29T05:01:33;7.82;;;3.00;;
26319;SDS011;14024;52.226;5.200;2022-07-29T05:04:00;4.30;;;2.80;;
26319;SDS011;14024;52.226;5.200;2022-07-29T05:06:26;4.57;;;2.97;;
26319;SDS011;14024;52.226;5.200;2022-07-29T05:08:52;5.35;;;2.63;;
26319;SDS011;14024;52.226;5.200;2022-07-29T05:11:18;7.10;;;3.10;;
26319;SDS011;14024;52.226;5.200;2022-07-29T05:13:44;5.40;;;3.38;;
26319;SDS011;14024;52.226;5.200;2022-07-29T05:16:10;4.55;;;3.00;;
26319;SDS011;14024;52.226;5.200;2022-07-29T05:18:35;5.57;;;3.00;;
26319;SDS011;14024;52.226;5.200;2022-07-29T05:21:01;4.63;;;2.97;;
26319;SDS011;14024;52.226;5.200;2022-07-29T05:23:27;5.28;;;3.10;;
26319;SDS011;14024;52.226;5.200;2022-07-29T05:25:53;10.52;;;2.90;;
26319;SDS011;14024;52.226;5.200;2022-07-29T05:28:19;6.10;;;3.17;;
26319;SDS011;14024;52.226;5.200;2022-07-29T05:30:45;5.45;;;2.83;;
26319;SDS011;14024;52.226;5.200;2022-07-29T05:33:11;3.92;;;2.83;;
26319;SDS011;14024;52.226;5.200;2022-07-29T05:35:37;10.75;;;3.35;;
26319;SDS011;14024;52.226;5.200;2022-07-29T05:38:03;5.20;;;2.97;;
26319;SDS011;14024;52.226;5.200;2022-07-29T05:40:29;9.32;;;3.65;;
26319;SDS011;14024;52.226;5.200;2022-07-29T05:42:55;5.20;;;3.00;;
26319;SDS011;14024;52.226;5.200;2022-07-29T05:45:21;6.22;;;2.78;;
26319;SDS011;14024;52.226;5.200;2022-07-29T05:47:49;5.88;;;3.05;;
26319;SDS011;14024;52.226;5.200;2022-07-29T05:50:15;9.02;;;3.30;;
26319;SDS011;14024;52.226;5.200;2022-07-29T05:52:41;6.70;;;3.15;;
26319;SDS011;14024;52.226;5.200;2022-07-29T05:55:07;8.85;;;3.55;;
26319;SDS011;14024;52.226;5.200;2022-07-29T05:57:33;6.15;;;3.17;;
26319;SDS011;14024;52.226;5.200;2022-07-29T05:59:59;7.88;;;2.97;;
26319;SDS011;14024;52.226;5.200;2022-07-29T06:02:25;4.40;;;3.22;;
26319;SDS011;14024;52.226;5.200;2022-07-29T06:04:51;7.32;;;3.08;;
26319;SDS011;14024;52.226;5.200;2022-07-29T06:07:17;9.27;;;3.38;;
26319;SDS011;14024;52.226;5.200;2022-07-29T06:09:43;4.57;;;2.90;;
26319;SDS011;14024;52.226;5.200;2022-07-29T06:12:09;4.35;;;3.15;;
26319;SDS011;14024;52.226;5.200;2022-07-29T06:14:35;5.82;;;2.83;;
26319;SDS011;14024;52.226;5.200;2022-07-29T06:17:03;5.00;;;3.28;;
26319;SDS011;14024;52.226;5.200;2022-07-29T06:19:29;9.00;;;3.20;;
26319;SDS011;14024;52.226;5.200;2022-07-29T06:21:55;5.60;;;3.08;;
26319;SDS011;14024;52.226;5.200;2022-07-29T06:24:21;8.70;;;3.28;;
26319;SDS011;14024;52.226;5.200;2022-07-29T06:26:47;8.38;;;3.30;;
26319;SDS011;14024;52.226;5.200;2022-07-29T06:29:13;7.10;;;3.60;;
26319;SDS011;14024;52.226;5.200;2022-07-29T06:31:39;4.80;;;3.30;;
26319;SDS011;14024;52.226;5.200;2022-07-29T06:34:05;7.80;;;3.60;;
26319;SDS011;14024;52.226;5.200;2022-07-29T06:36:34;9.13;;;3.10;;
26319;SDS011;14024;52.226;5.200;2022-07-29T06:39:00;7.10;;;3.50;;
26319;SDS011;14024;52.226;5.200;2022-07-29T06:41:26;4.00;;;3.35;;
26319;SDS011;14024;52.226;5.200;2022-07-29T06:43:52;10.93;;;3.83;;
26319;SDS011;14024;52.226;5.200;2022-07-29T06:46:19;10.15;;;3.30;;
26319;SDS011;14024;52.226;5.200;2022-07-29T06:48:45;4.93;;;3.55;;
26319;SDS011;14024;52.226;5.200;2022-07-29T06:51:15;7.47;;;3.65;;
26319;SDS011;14024;52.226;5.200;2022-07-29T06:53:41;13.30;;;3.40;;
26319;SDS011;14024;52.226;5.200;2022-07-29T06:56:07;9.15;;;3.58;;
26319;SDS011;14024;52.226;5.200;2022-07-29T06:58:34;6.13;;;3.53;;
26319;SDS011;14024;52.226;5.200;2022-07-29T07:01:01;4.90;;;3.15;;
26319;SDS011;14024;52.226;5.200;2022-07-29T07:03:27;7.10;;;3.25;;
26319;SDS011;14024;52.226;5.200;2022-07-29T07:05:53;6.03;;;3.22;;
26319;SDS011;14024;52.226;5.200;2022-07-29T07:08:19;8.13;;;4.13;;
26319;SDS011;14024;52.226;5.200;2022-07-29T07:10:46;9.00;;;3.83;;
26319;SDS011;14024;52.226;5.200;2022-07-29T07:13:12;8.95;;;3.47;;
26319;SDS011;14024;52.226;5.200;2022-07-29T07:15:39;5.78;;;3.25;;
26319;SDS011;14024;52.226;5.200;2022-07-29T07:18:05;8.00;;;3.38;;
26319;SDS011;14024;52.226;5.200;2022-07-29T07:20:32;7.88;;;3.97;;
26319;SDS011;14024;52.226;5.200;2022-07-29T07:22:58;5.75;;;3.67;;
26319;SDS011;14024;52.226;5.200;2022-07-29T07:25:24;8.40;;;3.95;;
26319;SDS011;14024;52.226;5.200;2022-07-29T07:27:50;6.20;;;3.65;;
26319;SDS011;14024;52.226;5.200;2022-07-29T07:30:16;7.03;;;3.85;;
26319;SDS011;14024;52.226;5.200;2022-07-29T07:32:42;5.82;;;3.67;;
26319;SDS011;14024;52.226;5.200;2022-07-29T07:35:09;9.65;;;3.85;;
26319;SDS011;14024;52.226;5.200;2022-07-29T07:37:35;10.98;;;4.38;;
26319;SDS011;14024;52.226;5.200;2022-07-29T07:40:02;7.65;;;4.43;;
26319;SDS011;14024;52.226;5.200;2022-07-29T07:42:29;6.32;;;4.35;;
26319;SDS011;14024;52.226;5.200;2022-07-29T07:44:55;6.32;;;3.83;;
26319;SDS011;14024;52.226;5.200;2022-07-29T07:47:21;6.55;;;3.90;;
26319;SDS011;14024;52.226;5.200;2022-07-29T07:49:48;6.63;;;4.15;;
26319;SDS011;14024;52.226;5.200;2022-07-29T07:52:15;10.05;;;4.00;;
26319;SDS011;14024;52.226;5.200;2022-07-29T07:54:42;11.88;;;4.07;;
26319;SDS011;14024;52.226;5.200;2022-07-29T07:57:09;11.70;;;4.53;;
26319;SDS011;14024;52.226;5.200;2022-07-29T07:59:36;6.32;;;4.00;;
26319;SDS011;14024;52.226;5.200;2022-07-29T08:02:02;16.05;;;4.38;;
26319;SDS011;14024;52.226;5.200;2022-07-29T08:04:28;7.40;;;4.28;;
26319;SDS011;14024;52.226;5.200;2022-07-29T08:06:54;8.40;;;4.20;;
26319;SDS011;14024;52.226;5.200;2022-07-29T08:09:20;13.07;;;4.70;;
26319;SDS011;14024;52.226;5.200;2022-07-29T08:11:46;10.90;;;4.30;;
26319;SDS011;14024;52.226;5.200;2022-07-29T08:14:12;9.25;;;4.20;;
26319;SDS011;14024;52.226;5.200;2022-07-29T08:16:39;8.55;;;4.00;;
26319;SDS011;14024;52.226;5.200;2022-07-29T08:19:05;8.77;;;3.72;;
26319;SDS011;14024;52.226;5.200;2022-07-29T08:21:31;10.20;;;4.15;;
26319;SDS011;14024;52.226;5.200;2022-07-29T08:23:57;7.32;;;4.00;;
26319;SDS011;14024;52.226;5.200;2022-07-29T08:26:42;10.43;;;4.28;;
26319;SDS011;14024;52.226;5.200;2022-07-29T08:29:08;6.68;;;3.90;;
26319;SDS011;14024;52.226;5.200;2022-07-29T08:31:35;8.98;;;3.65;;
26319;SDS011;14024;52.226;5.200;2022-07-29T08:34:01;7.70;;;3.42;;
26319;SDS011;14024;52.226;5.200;2022-07-29T08:36:28;9.40;;;3.72;;
26319;SDS011;14024;52.226;5.200;2022-07-29T08:38:54;6.82;;;3.53;;
26319;SDS011;14024;52.226;5.200;2022-07-29T08:41:20;7.45;;;3.45;;
26319;SDS011;14024;52.226;5.200;2022-07-29T08:43:47;7.50;;;4.00;;
26319;SDS011;14024;52.226;5.200;2022-07-29T08:46:13;8.45;;;4.22;;
26319;SDS011;14024;52.226;5.200;2022-07-29T08:48:39;5.50;;;3.50;;
26319;SDS011;14024;52.226;5.200;2022-07-29T08:51:06;4.93;;;3.50;;
26319;SDS011;14024;52.226;5.200;2022-07-29T08:53:33;12.60;;;3.80;;
26319;SDS011;14024;52.226;5.200;2022-07-29T08:55:59;14.65;;;4.07;;
26319;SDS011;14024;52.226;5.200;2022-07-29T08:58:25;7.53;;;3.85;;
26319;SDS011;14024;52.226;5.200;2022-07-29T09:00:53;6.22;;;3.50;;
26319;SDS011;14024;52.226;5.200;2022-07-29T09:03:19;7.13;;;3.22;;
26319;SDS011;14024;52.226;5.200;2022-07-29T09:05:46;9.85;;;3.20;;
26319;SDS011;14024;52.226;5.200;2022-07-29T09:08:15;10.00;;;3.45;;
26319;SDS011;14024;52.226;5.200;2022-07-29T09:10:42;5.78;;;3.10;;
26319;SDS011;14024;52.226;5.200;2022-07-29T09:13:08;9.98;;;4.03;;
26319;SDS011;14024;52.226;5.200;2022-07-29T09:15:34;8.63;;;3.70;;
26319;SDS011;14024;52.226;5.200;2022-07-29T09:18:00;9.45;;;4.03;;
26319;SDS011;14024;52.226;5.200;2022-07-29T09:20:27;11.50;;;3.78;;
26319;SDS011;14024;52.226;5.200;2022-07-29T09:23:12;8.18;;;3.90;;
26319;SDS011;14024;52.226;5.200;2022-07-29T09:25:39;5.45;;;3.30;;
26319;SDS011;14024;52.226;5.200;2022-07-29T09:28:09;5.85;;;3.40;;
26319;SDS011;14024;52.226;5.200;2022-07-29T09:30:35;5.07;;;2.95;;
26319;SDS011;14024;52.226;5.200;2022-07-29T09:33:02;10.95;;;3.17;;
26319;SDS011;14024;52.226;5.200;2022-07-29T09:35:29;7.32;;;3.10;;
26319;SDS011;14024;52.226;5.200;2022-07-29T09:37:56;9.52;;;3.25;;
26319;SDS011;14024;52.226;5.200;2022-07-29T09:40:23;12.55;;;3.40;;
26319;SDS011;14024;52.226;5.200;2022-07-29T09:42:50;5.93;;;3.80;;
26319;SDS011;14024;52.226;5.200;2022-07-29T09:45:30;8.20;;;3.35;;
26319;SDS011;14024;52.226;5.200;2022-07-29T09:47:57;9.90;;;3.20;;
26319;SDS011;14024;52.226;5.200;2022-07-29T09:50:34;7.72;;;3.22;;
26319;SDS011;14024;52.226;5.200;2022-07-29T09:53:00;14.48;;;3.20;;
26319;SDS011;14024;52.226;5.200;2022-07-29T09:55:26;11.25;;;3.50;;
26319;SDS011;14024;52.226;5.200;2022-07-29T09:57:52;7.25;;;3.42;;
26319;SDS011;14024;52.226;5.200;2022-07-29T10:00:19;8.60;;;3.30;;
26319;SDS011;14024;52.226;5.200;2022-07-29T10:02:48;6.63;;;3.30;;
26319;SDS011;14024;52.226;5.200;2022-07-29T10:07:47;7.38;;;3.63;;
26319;SDS011;14024;52.226;5.200;2022-07-29T10:10:35;8.25;;;3.10;;
26319;SDS011;14024;52.226;5.200;2022-07-29T10:13:01;6.25;;;3.38;;
26319;SDS011;14024;52.226;5.200;2022-07-29T10:15:31;8.48;;;2.95;;
26319;SDS011;14024;52.226;5.200;2022-07-29T10:18:00;5.80;;;3.28;;
26319;SDS011;14024;52.226;5.200;2022-07-29T10:20:26;7.65;;;3.42;;
26319;SDS011;14024;52.226;5.200;2022-07-29T10:22:53;7.47;;;2.97;;
26319;SDS011;14024;52.226;5.200;2022-07-29T10:25:19;11.55;;;3.30;;
26319;SDS011;14024;52.226;5.200;2022-07-29T10:27:46;5.50;;;3.10;;
26319;SDS011;14024;52.226;5.200;2022-07-29T10:30:13;9.70;;;2.63;;
26319;SDS011;14024;52.226;5.200;2022-07-29T10:32:48;5.32;;;2.42;;
26319;SDS011;14024;52.226;5.200;2022-07-29T10:43:22;7.22;;;2.80;;
26319;SDS011;14024;52.226;5.200;2022-07-29T10:45:49;11.68;;;3.00;;
26319;SDS011;14024;52.226;5.200;2022-07-29T10:48:20;7.13;;;2.30;;
26319;SDS011;14024;52.226;5.200;2022-07-29T10:50:53;5.93;;;3.60;;
26319;SDS011;14024;52.226;5.200;2022-07-29T10:53:23;5.50;;;3.13;;
26319;SDS011;14024;52.226;5.200;2022-07-29T10:55:50;10.07;;;3.42;;
26319;SDS011;14024;52.226;5.200;2022-07-29T10:58:20;11.02;;;3.35;;
26319;SDS011;14024;52.226;5.200;2022-07-29T11:00:48;7.88;;;3.25;;
26319;SDS011;14024;52.226;5.200;2022-07-29T11:05:59;11.20;;;2.78;;
26319;SDS011;14024;52.226;5.200;2022-07-29T11:08:25;6.03;;;2.78;;
26319;SDS011;14024;52.226;5.200;2022-07-29T11:10:52;5.80;;;3.15;;
26319;SDS011;14024;52.226;5.200;2022-07-29T11:16:19;7.50;;;3.25;;
26319;SDS011;14024;52.226;5.200;2022-07-29T11:21:36;5.55;;;3.05;;
26319;SDS011;14024;52.226;5.200;2022-07-29T11:26:38;10.27;;;4.35;;
26319;SDS011;14024;52.226;5.200;2022-07-29T11:29:06;10.35;;;3.80;;
26319;SDS011;14024;52.226;5.200;2022-07-29T11:31:44;7.47;;;3.78;;
26319;SDS011;14024;52.226;5.200;2022-07-29T11:34:24;12.85;;;3.78;;
26319;SDS011;14024;52.226;5.200;2022-07-29T11:39:46;9.27;;;3.22;;
26319;SDS011;14024;52.226;5.200;2022-07-29T11:45:01;7.15;;;3.50;;
26319;SDS011;14024;52.226;5.200;2022-07-29T11:47:30;11.73;;;3.25;;
26319;SDS011;14024;52.226;5.200;2022-07-29T11:49:57;6.20;;;3.10;;
26319;SDS011;14024;52.226;5.200;2022-07-29T11:52:23;9.57;;;3.28;;
26319;SDS011;14024;52.226;5.200;2022-07-29T11:54:50;8.55;;;3.60;;
26319;SDS011;14024;52.226;5.200;2022-07-29T11:57:16;6.28;;;3.60;;
26319;SDS011;14024;52.226;5.200;2022-07-29T11:59:44;7.97;;;3.33;;
26319;SDS011;14024;52.226;5.200;2022-07-29T12:02:10;4.38;;;3.55;;
26319;SDS011;14024;52.226;5.200;2022-07-29T12:07:15;8.90;;;3.40;;
26319;SDS011;14024;52.226;5.200;2022-07-29T12:09:48;9.05;;;4.10;;
26319;SDS011;14024;52.226;5.200;2022-07-29T12:12:15;7.93;;;3.42;;
26319;SDS011;14024;52.226;5.200;2022-07-29T12:14:42;12.40;;;3.55;;
26319;SDS011;14024;52.226;5.200;2022-07-29T12:17:24;5.10;;;3.25;;
26319;SDS011;14024;52.226;5.200;2022-07-29T12:19:51;7.53;;;3.25;;
26319;SDS011;14024;52.226;5.200;2022-07-29T12:22:27;12.18;;;3.20;;
26319;SDS011;14024;52.226;5.200;2022-07-29T12:24:55;8.48;;;3.60;;
26319;SDS011;14024;52.226;5.200;2022-07-29T12:27:21;7.65;;;3.67;;
26319;SDS011;14024;52.226;5.200;2022-07-29T12:29:58;7.43;;;3.63;;
26319;SDS011;14024;52.226;5.200;2022-07-29T12:32:41;7.65;;;3.10;;
26319;SDS011;14024;52.226;5.200;2022-07-29T12:35:08;5.70;;;3.25;;
26319;SDS011;14024;52.226;5.200;2022-07-29T12:37:35;5.53;;;2.83;;
26319;SDS011;14024;52.226;5.200;2022-07-29T12:40:02;6.05;;;3.20;;
26319;SDS011;14024;52.226;5.200;2022-07-29T12:42:28;6.22;;;3.80;;
26319;SDS011;14024;52.226;5.200;2022-07-29T12:44:54;7.63;;;3.28;;
26319;SDS011;14024;52.226;5.200;2022-07-29T12:47:21;6.68;;;3.47;;
26319;SDS011;14024;52.226;5.200;2022-07-29T12:49:47;10.10;;;3.70;;
26319;SDS011;14024;52.226;5.200;2022-07-29T12:52:23;8.57;;;4.07;;
26319;SDS011;14024;52.226;5.200;2022-07-29T12:54:49;7.60;;;3.25;;
26319;SDS011;14024;52.226;5.200;2022-07-29T12:57:16;5.82;;;2.80;;
26319;SDS011;14024;52.226;5.200;2022-07-29T12:59:42;9.80;;;3.35;;
26319;SDS011;14024;52.226;5.200;2022-07-29T13:02:19;8.15;;;3.55;;
26319;SDS011;14024;52.226;5.200;2022-07-29T13:04:54;6.03;;;3.20;;
26319;SDS011;14024;52.226;5.200;2022-07-29T13:07:23;7.95;;;2.97;;
26319;SDS011;14024;52.226;5.200;2022-07-29T13:09:50;9.35;;;2.90;;
26319;SDS011;14024;52.226;5.200;2022-07-29T13:12:16;8.73;;;2.80;;
26319;SDS011;14024;52.226;5.200;2022-07-29T13:14:43;7.25;;;3.40;;
26319;SDS011;14024;52.226;5.200;2022-07-29T13:17:11;5.20;;;3.00;;
26319;SDS011;14024;52.226;5.200;2022-07-29T13:22:05;6.85;;;2.83;;
26319;SDS011;14024;52.226;5.200;2022-07-29T13:24:31;8.13;;;3.13;;
26319;SDS011;14024;52.226;5.200;2022-07-29T13:26:57;5.93;;;3.00;;
26319;SDS011;14024;52.226;5.200;2022-07-29T13:29:23;6.90;;;2.90;;
26319;SDS011;14024;52.226;5.200;2022-07-29T13:31:51;4.32;;;2.95;;
26319;SDS011;14024;52.226;5.200;2022-07-29T13:34:17;11.88;;;3.25;;
26319;SDS011;14024;52.226;5.200;2022-07-29T13:36:45;3.88;;;2.60;;
26319;SDS011;14024;52.226;5.200;2022-07-29T13:39:11;10.75;;;3.00;;
26319;SDS011;14024;52.226;5.200;2022-07-29T13:41:37;9.93;;;3.17;;
26319;SDS011;14024;52.226;5.200;2022-07-29T13:44:03;6.28;;;2.75;;
26319;SDS011;14024;52.226;5.200;2022-07-29T13:46:29;7.30;;;2.90;;
26319;SDS011;14024;52.226;5.200;2022-07-29T13:48:55;8.00;;;3.08;;
26319;SDS011;14024;52.226;5.200;2022-07-29T13:51:21;7.72;;;3.85;;
26319;SDS011;14024;52.226;5.200;2022-07-29T13:53:47;3.50;;;2.58;;
26319;SDS011;14024;52.226;5.200;2022-07-29T13:56:13;10.23;;;2.85;;
26319;SDS011;14024;52.226;5.200;2022-07-29T13:58:39;7.00;;;3.00;;
26319;SDS011;14024;52.226;5.200;2022-07-29T14:01:05;6.35;;;2.95;;
26319;SDS011;14024;52.226;5.200;2022-07-29T14:03:31;6.60;;;3.20;;
26319;SDS011;14024;52.226;5.200;2022-07-29T14:05:57;5.43;;;2.83;;
26319;SDS011;14024;52.226;5.200;2022-07-29T14:08:24;6.55;;;2.70;;
26319;SDS011;14024;52.226;5.200;2022-07-29T14:10:50;5.68;;;2.78;;
26319;SDS011;14024;52.226;5.200;2022-07-29T14:13:16;5.32;;;3.08;;
26319;SDS011;14024;52.226;5.200;2022-07-29T14:15:42;11.75;;;2.97;;
26319;SDS011;14024;52.226;5.200;2022-07-29T14:18:08;5.55;;;2.83;;
26319;SDS011;14024;52.226;5.200;2022-07-29T14:20:34;7.10;;;2.97;;
26319;SDS011;14024;52.226;5.200;2022-07-29T14:23:00;6.30;;;2.67;;
26319;SDS011;14024;52.226;5.200;2022-07-29T14:25:27;4.07;;;2.67;;
26319;SDS011;14024;52.226;5.200;2022-07-29T14:27:53;5.53;;;3.15;;
26319;SDS011;14024;52.226;5.200;2022-07-29T14:30:19;10.52;;;3.10;;
26319;SDS011;14024;52.226;5.200;2022-07-29T14:32:45;8.40;;;2.47;;
26319;SDS011;14024;52.226;5.200;2022-07-29T14:35:11;7.13;;;2.60;;
26319;SDS011;14024;52.226;5.200;2022-07-29T14:37:37;5.25;;;2.75;;
26319;SDS011;14024;52.226;5.200;2022-07-29T14:40:03;7.35;;;2.85;;
26319;SDS011;14024;52.226;5.200;2022-07-29T14:42:30;10.18;;;2.85;;
26319;SDS011;14024;52.226;5.200;2022-07-29T14:44:56;4.88;;;2.75;;
26319;SDS011;14024;52.226;5.200;2022-07-29T14:47:22;6.93;;;2.70;;
26319;SDS011;14024;52.226;5.200;2022-07-29T14:49:49;10.65;;;2.65;;
26319;SDS011;14024;52.226;5.200;2022-07-29T14:52:15;8.85;;;3.35;;
26319;SDS011;14024;52.226;5.200;2022-07-29T14:54:41;8.23;;;3.45;;
26319;SDS011;14024;52.226;5.200;2022-07-29T14:57:07;4.88;;;2.30;;
26319;SDS011;14024;52.226;5.200;2022-07-29T14:59:33;5.07;;;2.90;;
26319;SDS011;14024;52.226;5.200;2022-07-29T15:01:59;8.10;;;3.30;;
26319;SDS011;14024;52.226;5.200;2022-07-29T15:04:25;6.78;;;2.90;;
26319;SDS011;14024;52.226;5.200;2022-07-29T15:06:51;8.45;;;3.50;;
26319;SDS011;14024;52.226;5.200;2022-07-29T15:09:17;12.25;;;3.03;;
26319;SDS011;14024;52.226;5.200;2022-07-29T15:11:43;10.50;;;2.63;;
26319;SDS011;14024;52.226;5.200;2022-07-29T15:14:09;9.88;;;2.95;;
26319;SDS011;14024;52.226;5.200;2022-07-29T15:16:36;6.80;;;3.28;;
26319;SDS011;14024;52.226;5.200;2022-07-29T15:19:03;9.63;;;3.67;;
26319;SDS011;14024;52.226;5.200;2022-07-29T15:21:29;9.23;;;4.10;;
26319;SDS011;14024;52.226;5.200;2022-07-29T15:23:55;7.15;;;3.80;;
26319;SDS011;14024;52.226;5.200;2022-07-29T15:26:21;10.18;;;3.70;;
26319;SDS011;14024;52.226;5.200;2022-07-29T15:28:47;10.00;;;3.17;;